Time;durP1;ratioP1;P1;durP2;ratioP2;P2;SDS_P1;SDS_P2;PMS_P1;PMS_P2;Temp;Humidity;BMP_temperature;BMP_pressure;BME280_temperature;BME280_humidity;BME280_pressure;Samples;Min_cycle;Max_cycle;Signal;HPM_P1;HPM_P2
2022/11/27 00:02:03;;;;;;;2.53;1.17;;;;;;;17.38;58.18;97719.19;10437476;28;20051;-30
2022/11/27 00:07:04;;;;;;;1.45;1.00;;;;;;;17.37;58.59;97703.16;10436957;28;20407;-30
2022/11/27 00:12:04;;;;;;;3.40;1.27;;;;;;;17.36;58.51;97690.44;10441750;28;20025;-32
2022/11/27 00:17:04;;;;;;;1.50;0.90;;;;;;;17.34;57.96;97681.94;10440747;28;20475;-29
2022/11/27 00:22:05;;;;;;;2.13;0.70;;;;;;;17.34;58.07;97676.88;10442069;28;20060;-30
2022/11/27 00:27:06;;;;;;;3.60;1.10;;;;;;;17.32;57.97;97664.19;10438582;28;20388;-31
2022/11/27 00:32:07;;;;;;;2.73;0.97;;;;;;;17.31;57.98;97659.13;10440264;28;20531;-30
2022/11/27 00:37:07;;;;;;;1.65;0.98;;;;;;;17.34;57.80;97651.56;10438454;28;20319;-32
2022/11/27 00:42:07;;;;;;;1.27;0.85;;;;;;;17.44;57.23;97650.94;10441049;28;20091;-29
2022/11/27 00:47:08;;;;;;;2.17;1.10;;;;;;;17.50;57.53;97643.47;10440678;28;20056;-30
2022/11/27 00:52:08;;;;;;;3.30;0.90;;;;;;;17.45;57.68;97634.94;10438838;28;20119;-33
2022/11/27 00:57:08;;;;;;;1.87;1.10;;;;;;;17.35;57.27;97638.09;10444770;28;20329;-30
2022/11/27 01:02:09;;;;;;;0.93;0.80;;;;;;;17.34;57.55;97641.44;10438670;28;20302;-29
2022/11/27 01:07:09;;;;;;;3.27;1.07;;;;;;;17.31;57.34;97639.72;10419324;28;20066;-29
2022/11/27 01:12:09;;;;;;;1.33;0.90;;;;;;;17.31;57.12;97649.00;10430332;28;20025;-30
2022/11/27 01:17:10;;;;;;;1.67;1.00;;;;;;;17.29;57.35;97637.97;10433744;28;20050;-30
2022/11/27 01:22:10;;;;;;;2.13;1.03;;;;;;;17.30;57.00;97629.53;10440447;28;20035;-30
2022/11/27 01:27:11;;;;;;;1.10;0.90;;;;;;;17.27;57.11;97619.38;10435641;28;20040;-30
2022/11/27 01:32:11;;;;;;;1.37;0.73;;;;;;;17.21;57.13;97604.06;10434010;28;20045;-30
2022/11/27 01:37:11;;;;;;;1.90;0.90;;;;;;;17.26;56.77;97602.50;10437400;28;20527;-30
2022/11/27 01:42:12;;;;;;;1.83;0.80;;;;;;;17.27;57.02;97609.25;10440059;28;20063;-29
2022/11/27 01:47:16;;;;;;;1.80;0.87;;;;;;;17.28;56.82;97605.91;10438419;28;20097;-30
2022/11/27 01:52:26;;;;;;;2.45;0.73;;;;;;;17.32;56.46;97595.03;10433214;28;20041;-31
2022/11/27 01:57:34;;;;;;;1.67;0.70;;;;;;;17.41;56.06;97592.69;10431505;28;20402;-30
2022/11/27 02:02:35;;;;;;;1.52;0.88;;;;;;;17.43;56.54;97591.03;10441773;28;20090;-30
2022/11/27 02:07:36;;;;;;;1.38;0.70;;;;;;;17.37;56.62;97591.78;10436072;28;20029;-31
2022/11/27 02:12:39;;;;;;;3.90;0.73;;;;;;;17.30;56.47;97600.03;10436877;28;20032;-30
2022/11/27 02:17:58;;;;;;;0.95;0.70;;;;;;;17.28;56.81;97593.25;10426394;28;20080;-31
2022/11/27 02:23:12;;;;;;;2.58;1.10;;;;;;;17.26;56.32;97595.72;10431244;28;20025;-30
2022/11/27 02:28:28;;;;;;;4.22;0.70;;;;;;;17.26;56.42;97597.44;10432731;28;20487;-29
2022/11/27 02:33:32;;;;;;;1.48;0.75;;;;;;;17.18;56.38;97574.53;10433016;28;20036;-31
2022/11/27 02:38:44;;;;;;;1.80;0.82;;;;;;;17.18;56.46;97576.19;10432785;28;20025;-30
2022/11/27 02:43:48;;;;;;;1.45;0.55;;;;;;;17.23;56.03;97594.84;10433617;28;20111;-30
2022/11/27 02:48:52;;;;;;;2.90;0.95;;;;;;;17.24;56.26;97594.03;10431793;28;20120;-29
2022/11/27 02:53:57;;;;;;;0.73;0.55;;;;;;;17.22;56.32;97591.47;10438392;28;20041;-30
2022/11/27 02:59:02;;;;;;;2.15;1.20;;;;;;;17.23;56.08;97587.25;10434545;28;20422;-30
2022/11/27 03:04:07;;;;;;;2.53;0.85;;;;;;;17.19;56.11;97571.16;10432600;28;20034;-30
2022/11/27 03:09:33;;;;;;;1.90;0.87;;;;;;;17.29;55.75;97556.97;10440462;28;20033;-30
2022/11/27 03:14:37;;;;;;;1.02;0.57;;;;;;;17.41;55.42;97552.19;10435804;28;20051;-30
2022/11/27 03:19:47;;;;;;;2.15;1.00;;;;;;;17.36;55.75;97543.66;10433136;28;20516;-31
2022/11/27 03:24:48;;;;;;;1.63;0.57;;;;;;;17.28;56.19;97540.09;10434271;28;20033;-31
2022/11/27 03:30:00;;;;;;;1.60;0.77;;;;;;;17.24;56.03;97544.25;10433589;28;20052;-30
2022/11/27 03:35:00;;;;;;;1.60;0.88;;;;;;;17.23;56.15;97531.59;10432983;28;20045;-32
2022/11/27 03:40:02;;;;;;;3.10;1.02;;;;;;;17.21;55.91;97520.56;10435362;28;20048;-30
2022/11/27 03:45:21;;;;;;;3.13;0.90;;;;;;;17.21;56.08;97513.84;10436433;28;20033;-30
2022/11/27 03:50:47;;;;;;;1.35;0.80;;;;;;;17.20;55.56;97506.22;10435029;28;20280;-30
2022/11/27 03:56:09;;;;;;;1.35;0.70;;;;;;;17.20;55.66;97493.56;10433135;28;20048;-30
2022/11/27 04:01:13;;;;;;;1.40;0.80;;;;;;;17.18;56.00;97498.63;10430105;28;20120;-29
2022/11/27 04:06:14;;;;;;;2.13;0.77;;;;;;;17.17;55.55;97501.09;10430429;28;20044;-30
2022/11/27 04:11:14;;;;;;;1.33;0.70;;;;;;;17.18;54.99;97497.75;10433062;28;20072;-30
2022/11/27 04:16:15;;;;;;;1.00;0.60;;;;;;;17.18;55.70;97482.56;10432878;28;20033;-30
2022/11/27 04:21:15;;;;;;;2.43;0.80;;;;;;;17.27;54.98;97488.66;10440269;28;20275;-31
2022/11/27 04:26:16;;;;;;;1.55;0.93;;;;;;;17.35;55.13;97501.41;10441857;28;20036;-30
2022/11/27 04:31:16;;;;;;;0.67;0.40;;;;;;;17.33;55.26;97513.19;10441288;28;20039;-29
2022/11/27 04:36:16;;;;;;;1.20;0.70;;;;;;;17.24;55.47;97508.81;10444707;28;20021;-30
2022/11/27 04:41:17;;;;;;;0.90;0.60;;;;;;;17.15;55.72;97497.69;10446001;28;20040;-30
2022/11/27 04:46:17;;;;;;;1.47;0.60;;;;;;;17.16;55.72;97509.53;10436138;28;20041;-30
2022/11/27 04:51:18;;;;;;;1.63;0.60;;;;;;;17.16;55.39;97501.94;10441177;28;20291;-30
2022/11/27 04:56:18;;;;;;;0.90;0.60;;;;;;;17.17;55.18;97508.69;10438427;28;20033;-29
2022/11/27 05:01:18;;;;;;;1.00;0.60;;;;;;;17.21;54.96;97510.44;10436640;28;20052;-30
2022/11/27 05:06:21;;;;;;;0.68;0.35;;;;;;;17.23;54.81;97493.63;10439064;28;20037;-30
2022/11/27 05:11:21;;;;;;;0.80;0.60;;;;;;;17.24;54.75;97480.97;10446072;28;20407;-29
2022/11/27 05:16:22;;;;;;;1.23;0.57;;;;;;;17.24;54.91;97482.69;10440369;28;20052;-30
2022/11/27 05:21:22;;;;;;;0.90;0.60;;;;;;;17.21;55.01;97477.53;10437725;28;20037;-31
2022/11/27 05:26:22;;;;;;;1.87;0.60;;;;;;;17.19;54.89;97464.03;10439443;28;20280;-29
2022/11/27 05:31:23;;;;;;;1.20;0.67;;;;;;;17.20;54.62;97474.19;10437000;28;20037;-30
2022/11/27 05:36:23;;;;;;;0.65;0.50;;;;;;;17.32;54.21;97483.66;10443902;28;20032;-30
2022/11/27 05:41:24;;;;;;;0.93;0.45;;;;;;;17.36;54.25;97486.28;10438991;28;20028;-29
2022/11/27 05:46:25;;;;;;;1.02;0.60;;;;;;;17.35;54.32;97488.75;10433588;28;20403;-30
2022/11/27 05:51:25;;;;;;;1.00;0.45;;;;;;;17.27;54.57;97486.13;10431263;28;20484;-30
2022/11/27 05:56:26;;;;;;;1.30;0.60;;;;;;;17.24;54.54;97495.31;10434832;28;20041;-30
2022/11/27 06:01:26;;;;;;;1.33;0.60;;;;;;;17.20;54.50;97485.97;10434357;28;20323;-30
2022/11/27 06:06:27;;;;;;;1.35;0.65;;;;;;;17.17;54.78;97486.75;10433468;28;20098;-30
2022/11/27 06:11:27;;;;;;;0.88;0.63;;;;;;;17.20;53.45;97478.38;10436858;28;20494;-28
2022/11/27 06:16:28;;;;;;;1.90;0.40;;;;;;;17.27;53.67;97465.88;10435773;28;20118;-28
2022/11/27 06:21:28;;;;;;;1.10;0.73;;;;;;;17.35;53.70;97440.66;10433221;28;20028;-30
2022/11/27 06:26:30;;;;;;;2.80;0.80;;;;;;;17.39;53.92;97424.72;10433740;28;20409;-29
2022/11/27 06:31:32;;;;;;;3.00;0.88;;;;;;;17.29;55.27;97410.19;10435559;28;20036;-30
2022/11/27 06:36:35;;;;;;;2.58;0.80;;;;;;;17.28;54.28;97413.56;10438622;28;20310;-30
2022/11/27 06:41:36;;;;;;;2.72;0.98;;;;;;;17.27;53.32;97394.16;10428456;28;20037;-31
2022/11/27 06:46:36;;;;;;;4.00;0.90;;;;;;;17.16;55.14;97388.06;10431068;28;20091;-30
2022/11/27 06:51:37;;;;;;;2.93;0.73;;;;;;;17.30;52.77;97384.91;10431238;28;20040;-30
2022/11/27 06:56:37;;;;;;;1.63;0.73;;;;;;;17.40;52.20;97393.53;10438099;28;20029;-29
2022/11/27 07:01:37;;;;;;;3.23;1.00;;;;;;;17.35;52.54;97400.19;10436939;28;20030;-29
2022/11/27 07:06:38;;;;;;;3.20;0.93;;;;;;;17.24;53.38;97399.16;10441938;28;20295;-30
2022/11/27 07:11:39;;;;;;;1.58;0.95;;;;;;;17.27;51.79;97417.78;10441684;28;20033;-30
2022/11/27 07:16:39;;;;;;;2.17;1.48;;;;;;;17.23;52.64;97440.50;10433529;28;20031;-30
2022/11/27 07:21:39;;;;;;;4.73;1.90;;;;;;;17.25;52.41;97438.81;10431318;28;20097;-29
2022/11/27 07:26:40;;;;;;;2.63;1.10;;;;;;;17.22;52.36;97438.75;10436291;28;20044;-30
2022/11/27 07:31:40;;;;;;;5.33;3.00;;;;;;;17.13;52.87;97418.38;10432186;28;20083;-30
2022/11/27 07:36:41;;;;;;;4.27;1.97;;;;;;;16.99;50.95;97428.25;10437301;28;20296;-30
2022/11/27 07:41:41;;;;;;;5.63;2.10;;;;;;;17.10;50.30;97419.19;10434373;28;20029;-30
2022/11/27 07:46:41;;;;;;;5.43;1.83;;;;;;;17.24;51.84;97416.88;10430981;28;20034;-29
2022/11/27 07:51:42;;;;;;;13.67;8.43;;;;;;;16.87;48.39;97425.53;10429642;28;20057;-30
2022/11/27 07:56:42;;;;;;;13.00;6.93;;;;;;;17.02;51.52;97418.22;10440544;28;20272;-31
2022/11/27 08:01:43;;;;;;;18.03;6.80;;;;;;;17.09;52.08;97412.41;10446939;28;20032;-30
2022/11/27 08:06:44;;;;;;;11.50;6.57;;;;;;;17.17;52.30;97404.97;10441353;28;20044;-29
2022/11/27 08:11:44;;;;;;;13.40;5.63;;;;;;;17.26;51.60;97415.22;10443354;28;20414;-30
2022/11/27 08:16:45;;;;;;;9.30;6.17;;;;;;;17.25;52.63;97395.81;10438711;28;20020;-31
2022/11/27 08:21:45;;;;;;;9.77;5.85;;;;;;;17.21;52.99;97396.56;10439233;28;20315;-32
2022/11/27 08:26:45;;;;;;;13.32;5.18;;;;;;;17.13;52.91;97393.06;10433913;28;20095;-32
2022/11/27 08:31:48;;;;;;;10.03;4.53;;;;;;;17.11;53.48;97389.66;10439780;28;20041;-30
2022/11/27 08:36:49;;;;;;;9.82;5.15;;;;;;;17.10;53.07;97382.91;10437924;28;20037;-30
2022/11/27 08:41:49;;;;;;;7.33;4.73;;;;;;;17.06;53.29;97368.53;10442973;28;20600;-32
2022/11/27 08:46:49;;;;;;;6.17;4.37;;;;;;;17.07;53.48;97363.47;10438758;28;20538;-30
2022/11/27 08:51:50;;;;;;;6.23;4.47;;;;;;;17.07;53.56;97342.41;10435945;28;20483;-30
2022/11/27 08:56:51;;;;;;;5.57;3.37;;;;;;;17.07;53.32;97325.53;10439979;28;20030;-30
2022/11/27 09:01:51;;;;;;;7.25;4.03;;;;;;;17.07;53.57;97322.16;10445079;28;20033;-30
2022/11/27 09:06:52;;;;;;;9.18;4.40;;;;;;;17.04;53.98;97317.03;10437968;28;20041;-29
2022/11/27 09:11:55;;;;;;;5.70;4.17;;;;;;;17.04;53.97;97309.44;10440949;28;20029;-30
2022/11/27 09:16:55;;;;;;;5.97;3.83;;;;;;;17.02;54.15;97308.56;10433597;28;20037;-30
2022/11/27 09:21:56;;;;;;;3.87;3.20;;;;;;;17.03;54.40;97320.38;10434390;28;20041;-30
2022/11/27 09:26:56;;;;;;;4.88;3.08;;;;;;;17.09;54.35;97321.31;10435460;28;20087;-30
2022/11/27 09:31:57;;;;;;;5.63;3.33;;;;;;;17.19;54.02;97350.16;10439734;28;20488;-30
2022/11/27 09:36:57;;;;;;;4.60;2.97;;;;;;;17.13;54.39;97340.81;10442248;28;20033;-30
2022/11/27 09:42:00;;;;;;;6.27;3.10;;;;;;;17.06;54.15;97335.63;10440586;28;20040;-30
2022/11/27 09:47:34;;;;;;;3.95;2.60;;;;;;;17.04;53.94;97332.22;10437297;28;20033;-30
2022/11/27 09:52:44;;;;;;;3.60;2.97;;;;;;;17.01;54.27;97327.97;10432416;28;20049;-30
2022/11/27 09:57:54;;;;;;;3.22;2.65;;;;;;;17.01;54.55;97347.34;10428830;28;20036;-30
2022/11/27 10:02:55;;;;;;;3.90;2.63;;;;;;;17.01;54.34;97333.03;10434577;28;20040;-30
2022/11/27 10:08:13;;;;;;;4.32;2.75;;;;;;;17.00;54.20;97325.41;10440906;28;20045;-30
2022/11/27 10:13:20;;;;;;;3.50;3.20;;;;;;;17.03;54.56;97325.44;10433514;28;20406;-30
2022/11/27 10:18:38;;;;;;;3.50;2.45;;;;;;;17.00;54.24;97333.00;10430161;28;20025;-30
2022/11/27 10:23:49;;;;;;;4.38;2.72;;;;;;;16.97;54.23;97305.97;10438566;28;20044;-30
2022/11/27 10:28:52;;;;;;;2.97;2.45;;;;;;;16.97;54.11;97315.22;10429153;28;20041;-30
2022/11/27 10:33:57;;;;;;;3.47;2.33;;;;;;;16.98;54.41;97291.66;10429349;28;20067;-30
2022/11/27 10:39:00;;;;;;;3.42;2.60;;;;;;;16.97;54.25;97262.13;10436507;28;20079;-32
2022/11/27 10:44:21;;;;;;;5.53;3.10;;;;;;;17.04;54.68;97247.06;10441126;28;20414;-29
2022/11/27 10:49:21;;;;;;;3.22;2.60;;;;;;;17.07;55.24;97248.78;10437383;28;20178;-30
2022/11/27 10:54:33;;;;;;;3.20;2.33;;;;;;;17.05;55.46;97258.00;10434679;28;20119;-30
2022/11/27 10:59:38;;;;;;;3.65;2.75;;;;;;;16.99;55.17;97265.53;10431400;28;20384;-31
2022/11/27 11:04:39;;;;;;;3.38;2.38;;;;;;;16.98;54.78;97261.31;10428978;28;20033;-29
2022/11/27 11:09:46;;;;;;;2.33;2.07;;;;;;;16.96;54.71;97227.53;10435739;28;20492;-30
2022/11/27 11:14:52;;;;;;;2.88;2.10;;;;;;;16.95;55.05;97223.31;10431591;28;20063;-30
2022/11/27 11:19:53;;;;;;;3.40;2.27;;;;;;;16.94;55.34;97198.84;10434437;28;20036;-29
2022/11/27 11:24:53;;;;;;;2.53;1.90;;;;;;;16.94;55.41;97204.78;10437278;28;20119;-33
2022/11/27 11:30:01;;;;;;;5.88;2.40;;;;;;;16.93;55.60;97204.75;10433996;28;20025;-31
2022/11/27 11:35:07;;;;;;;2.38;1.80;;;;;;;16.93;55.77;97202.22;10435291;28;20029;-29
2022/11/27 11:40:22;;;;;;;3.13;2.25;;;;;;;16.91;55.76;97201.34;10436215;28;20468;-30
2022/11/27 11:45:22;;;;;;;2.60;1.92;;;;;;;16.92;55.60;97200.53;10433622;28;20029;-30
2022/11/27 11:50:36;;;;;;;3.17;2.10;;;;;;;16.91;55.46;97191.25;10433977;28;20033;-30
2022/11/27 11:55:51;;;;;;;3.88;2.67;;;;;;;16.89;55.87;97180.25;10433779;28;20486;-30
2022/11/27 12:01:05;;;;;;;2.75;2.05;;;;;;;17.00;55.58;97158.47;10430453;28;20415;-30
2022/11/27 12:06:16;;;;;;;3.08;2.00;;;;;;;16.96;55.69;97139.00;10433874;28;20041;-30
2022/11/27 12:11:49;;;;;;;2.15;1.70;;;;;;;17.02;56.09;97142.50;10433692;28;20526;-30
2022/11/27 12:17:14;;;;;;;3.55;2.08;;;;;;;16.99;55.82;97131.47;10432398;28;20466;-30
2022/11/27 12:22:36;;;;;;;2.50;1.80;;;;;;;16.95;56.31;97122.16;10434281;28;20045;-30
2022/11/27 12:27:55;;;;;;;1.80;1.50;;;;;;;16.95;55.97;97114.56;10435241;28;20035;-30
2022/11/27 12:33:07;;;;;;;2.80;1.98;;;;;;;16.95;56.22;97114.56;10430412;28;20040;-29
2022/11/27 12:38:32;;;;;;;2.40;1.83;;;;;;;16.94;56.34;97112.88;10438249;28;20040;-30
2022/11/27 12:43:39;;;;;;;2.03;1.70;;;;;;;16.90;56.75;97106.91;10442149;28;20033;-30
2022/11/27 12:48:54;;;;;;;2.10;1.70;;;;;;;16.92;56.91;97094.31;10443140;28;20043;-29
2022/11/27 12:54:01;;;;;;;2.35;1.90;;;;;;;16.90;56.73;97075.75;10439340;28;20051;-29
2022/11/27 12:59:07;;;;;;;;;;;;;;;16.88;56.71;97065.59;10438810;28;20606;-30
2022/11/27 13:04:33;;;;;;;3.95;1.92;;;;;;;16.89;56.96;97059.69;10441933;28;20031;-28
2022/11/27 13:09:39;;;;;;;2.22;2.03;;;;;;;16.86;57.09;97054.63;10447500;28;20411;-30
2022/11/27 13:14:41;;;;;;;2.40;1.85;;;;;;;16.88;56.95;97044.50;10442874;28;20035;-30
2022/11/27 13:19:49;;;;;;;2.15;1.95;;;;;;;16.99;56.93;97031.16;10429351;28;20032;-30
2022/11/27 13:24:49;;;;;;;2.47;1.80;;;;;;;17.01;57.13;97028.66;10441484;28;20066;-30
2022/11/27 13:29:53;;;;;;;3.20;1.83;;;;;;;17.01;57.11;97018.53;10438723;28;20033;-30
2022/11/27 13:34:57;;;;;;;3.22;1.88;;;;;;;16.97;57.06;97024.38;10437391;28;20371;-30
2022/11/27 13:40:27;;;;;;;2.10;1.65;;;;;;;16.97;57.04;97014.25;10440538;28;20515;-30
2022/11/27 13:45:31;;;;;;;1.90;1.60;;;;;;;16.92;57.36;97004.09;10436469;28;20196;-30
2022/11/27 13:50:42;;;;;;;1.55;1.45;;;;;;;16.92;57.13;96998.19;10440535;28;20029;-31
2022/11/27 13:55:53;;;;;;;2.75;1.55;;;;;;;16.90;57.16;96977.94;10437657;28;20091;-30
2022/11/27 14:00:54;;;;;;;2.13;1.80;;;;;;;16.90;57.23;96977.13;10431913;28;20503;-29
2022/11/27 14:05:56;;;;;;;2.65;1.88;;;;;;;16.89;57.49;96961.06;10433079;28;20048;-27
2022/11/27 14:10:59;;;;;;;2.42;1.83;;;;;;;16.76;57.52;96928.06;10445027;28;20033;-30
2022/11/27 14:16:01;;;;;;;2.30;1.50;;;;;;;16.87;57.70;96931.53;10438916;28;20036;-30
2022/11/27 14:21:03;;;;;;;3.08;1.65;;;;;;;16.88;57.63;96925.66;10435758;28;20036;-30
2022/11/27 14:26:18;;;;;;;2.33;1.63;;;;;;;16.80;57.46;96914.63;10439204;28;20493;-32
2022/11/27 14:31:36;;;;;;;2.53;2.05;;;;;;;16.85;57.77;96933.22;10437925;28;20028;-30
2022/11/27 14:36:37;;;;;;;1.98;1.48;;;;;;;16.99;57.78;96934.19;10433795;28;20025;-30
2022/11/27 14:41:38;;;;;;;2.30;1.43;;;;;;;17.00;57.67;96936.72;10437695;28;20044;-29
2022/11/27 14:46:38;;;;;;;2.10;1.77;;;;;;;16.97;57.72;96935.84;10433208;28;20029;-29
2022/11/27 14:51:39;;;;;;;1.98;1.77;;;;;;;16.93;57.59;96935.00;10439168;28;20108;-30
2022/11/27 14:56:42;;;;;;;2.70;1.80;;;;;;;16.96;57.60;96935.03;10436631;28;20029;-30
2022/11/27 15:01:43;;;;;;;2.10;1.58;;;;;;;16.91;57.53;96925.69;10433795;28;20033;-30
2022/11/27 15:06:44;;;;;;;2.67;1.80;;;;;;;16.88;57.62;96920.59;10435413;28;20443;-29
2022/11/27 15:11:53;;;;;;;2.08;1.42;;;;;;;16.88;57.73;96907.94;10437899;28;20043;-30
2022/11/27 15:16:55;;;;;;;1.90;1.48;;;;;;;16.84;57.61;96901.19;10438207;28;20060;-30
2022/11/27 15:21:56;;;;;;;1.92;1.58;;;;;;;16.84;57.89;96914.66;10431565;28;20037;-30
2022/11/27 15:27:20;;;;;;;2.05;1.52;;;;;;;16.86;57.90;96902.91;10431488;28;20041;-31
2022/11/27 15:32:23;;;;;;;1.58;1.40;;;;;;;16.86;57.93;96907.09;10435390;28;20044;-27
2022/11/27 15:37:29;;;;;;;2.25;1.70;;;;;;;16.83;57.80;96889.38;10430798;28;20502;-31
2022/11/27 15:42:29;;;;;;;2.30;1.43;;;;;;;16.84;57.78;96883.47;10436507;28;20487;-30
2022/11/27 15:47:36;;;;;;;1.55;1.45;;;;;;;16.84;57.84;96884.31;10424258;28;20037;-30
2022/11/27 15:52:36;;;;;;;1.40;1.30;;;;;;;16.91;58.15;96870.06;10436512;28;20086;-30
2022/11/27 15:57:36;;;;;;;1.57;1.40;;;;;;;16.96;57.86;96871.78;10432358;28;20657;-30
2022/11/27 16:02:38;;;;;;;1.48;1.38;;;;;;;16.97;58.27;96867.56;10428728;28;20287;-29
2022/11/27 16:07:38;;;;;;;1.38;1.27;;;;;;;16.93;58.28;96863.31;10435721;28;20047;-29
2022/11/27 16:12:38;;;;;;;3.20;1.70;;;;;;;16.91;57.84;96855.72;10438375;28;20034;-30
2022/11/27 16:17:39;;;;;;;1.92;1.60;;;;;;;16.88;57.86;96857.38;10433798;28;20307;-30
2022/11/27 16:22:39;;;;;;;2.22;1.70;;;;;;;16.88;58.10;96852.31;10444887;28;20028;-29
2022/11/27 16:27:40;;;;;;;2.33;1.60;;;;;;;16.86;58.20;96843.88;10442439;28;20029;-29
2022/11/27 16:32:40;;;;;;;1.57;1.47;;;;;;;16.83;58.09;96839.63;10439928;28;20108;-30
2022/11/27 16:37:41;;;;;;;1.60;1.30;;;;;;;16.83;57.82;96831.22;10444453;28;20287;-30
2022/11/27 16:42:42;;;;;;;1.87;1.37;;;;;;;16.87;57.68;96820.28;10440943;28;20040;-30
2022/11/27 16:47:42;;;;;;;1.63;1.45;;;;;;;16.90;57.74;96815.28;10437993;28;20291;-30
2022/11/27 16:52:43;;;;;;;2.05;1.48;;;;;;;16.92;57.75;96806.84;10441042;28;20036;-30
2022/11/27 16:57:43;;;;;;;1.88;1.65;;;;;;;16.99;57.38;96800.16;10437594;28;20024;-30
2022/11/27 17:02:44;;;;;;;2.75;1.35;;;;;;;17.03;57.15;96790.06;10442561;28;20488;-30
2022/11/27 17:07:45;;;;;;;1.67;1.57;;;;;;;17.06;57.16;96789.25;10436682;28;20036;-30
2022/11/27 17:12:45;;;;;;;1.40;1.20;;;;;;;17.17;57.16;96769.91;10436089;28;20033;-31
2022/11/27 17:17:46;;;;;;;1.45;1.27;;;;;;;17.21;56.94;96764.88;10434551;28;20284;-31
2022/11/27 17:22:46;;;;;;;1.47;1.37;;;;;;;17.13;57.01;96750.47;10435976;28;20385;-31
2022/11/27 17:27:47;;;;;;;1.30;1.20;;;;;;;17.12;56.92;96739.53;10432486;28;20288;-30
2022/11/27 17:32:48;;;;;;;2.15;1.55;;;;;;;17.12;56.38;96728.56;10427903;28;20029;-29
2022/11/27 17:37:48;;;;;;;2.33;1.27;;;;;;;17.04;55.98;96727.69;10434173;28;20187;-30
2022/11/27 17:42:49;;;;;;;2.37;1.40;;;;;;;16.89;52.29;96720.03;10440009;28;20091;-29
2022/11/27 17:47:49;;;;;;;3.00;1.40;;;;;;;17.04;52.11;96713.34;10434270;28;20037;-28
2022/11/27 17:52:52;;;;;;;4.20;1.53;;;;;;;17.01;52.12;96710.81;10433058;28;20034;-30
2022/11/27 17:57:52;;;;;;;5.88;2.53;;;;;;;17.07;53.94;96693.13;10428577;28;20313;-30
2022/11/27 18:02:53;;;;;;;7.60;2.50;;;;;;;17.16;54.43;96682.22;10434469;28;20206;-30
2022/11/27 18:07:54;;;;;;;7.28;3.00;;;;;;;17.20;54.24;96678.84;10427674;28;20052;-29
2022/11/27 18:12:54;;;;;;;5.97;3.42;;;;;;;17.17;54.70;96681.38;10433307;28;20095;-31
2022/11/27 18:17:54;;;;;;;6.75;3.83;;;;;;;17.09;55.37;96657.72;10429536;28;20025;-29
2022/11/27 18:22:55;;;;;;;9.60;4.37;;;;;;;17.06;55.24;96645.91;10429689;28;20037;-30
2022/11/27 18:27:56;;;;;;;6.10;3.63;;;;;;;17.20;55.30;96648.50;10442651;28;20106;-30
2022/11/27 18:32:57;;;;;;;7.10;4.85;;;;;;;17.25;54.91;96642.59;10433908;28;20033;-30
2022/11/27 18:37:57;;;;;;;9.73;4.80;;;;;;;17.24;55.40;96635.03;10435882;28;20573;-30
2022/11/27 18:42:57;;;;;;;9.77;3.93;;;;;;;17.20;55.50;96636.72;10427030;28;20231;-31
2022/11/27 18:47:58;;;;;;;9.70;4.20;;;;;;;17.17;55.47;96630.78;10432218;28;20037;-30
2022/11/27 18:52:58;;;;;;;6.55;4.43;;;;;;;17.14;56.16;96610.56;10432291;28;20423;-30
2022/11/27 18:57:59;;;;;;;8.53;5.13;;;;;;;17.11;56.78;96605.47;10429546;28;20037;-30
2022/11/27 19:02:59;;;;;;;14.07;5.38;;;;;;;17.08;57.01;96600.41;10430487;28;20052;-30
2022/11/27 19:08:03;;;;;;;8.98;5.45;;;;;;;17.05;56.94;96580.13;10396778;28;20457;-31
2022/11/27 19:13:03;;;;;;;8.95;5.43;;;;;;;17.02;57.26;96575.09;10422879;28;20037;-30
2022/11/27 19:18:04;;;;;;;8.82;5.03;;;;;;;17.02;56.56;96570.03;10421121;28;20427;-29
2022/11/27 19:23:05;;;;;;;12.00;4.90;;;;;;;16.99;56.84;96578.44;10434218;28;20124;-30
2022/11/27 19:28:08;;;;;;;7.68;4.00;;;;;;;17.02;55.51;96590.25;10431923;28;20078;-30
2022/11/27 19:33:08;;;;;;;6.13;4.15;;;;;;;16.98;56.37;96583.50;10417507;28;20106;-30
2022/11/27 19:38:09;;;;;;;8.05;4.50;;;;;;;16.99;56.00;96601.19;10431705;28;20557;-30
2022/11/27 19:43:09;;;;;;;8.18;3.75;;;;;;;16.98;55.32;96606.28;10428457;28;20064;-30
2022/11/27 19:48:10;;;;;;;6.97;4.40;;;;;;;17.04;55.73;96588.56;10429570;28;20133;-30
2022/11/27 19:53:11;;;;;;;6.78;4.00;;;;;;;17.07;55.38;96583.53;10437026;28;20669;-30
2022/11/27 19:58:12;;;;;;;5.22;3.50;;;;;;;17.04;54.98;96588.56;10434351;28;20048;-30
2022/11/27 20:03:13;;;;;;;5.18;3.72;;;;;;;17.01;54.51;96570.88;10431981;28;20025;-29
2022/11/27 20:08:13;;;;;;;5.03;3.90;;;;;;;16.98;54.38;96578.44;10439769;28;20037;-29
2022/11/27 20:13:14;;;;;;;5.70;3.80;;;;;;;16.96;55.11;96577.56;10440175;28;20037;-30
2022/11/27 20:18:14;;;;;;;7.07;5.23;;;;;;;16.95;55.06;96555.66;10431350;28;20494;-30
2022/11/27 20:23:15;;;;;;;7.85;4.75;;;;;;;16.95;55.16;96554.00;10437191;28;20509;-30
2022/11/27 20:28:15;;;;;;;7.13;5.13;;;;;;;16.94;55.36;96538.81;10438121;28;20395;-30
2022/11/27 20:33:17;;;;;;;7.20;4.57;;;;;;;16.94;55.47;96541.34;10432510;28;20036;-30
2022/11/27 20:38:18;;;;;;;6.32;4.78;;;;;;;16.93;55.71;96534.59;10437881;28;20037;-29
2022/11/27 20:43:19;;;;;;;5.90;4.05;;;;;;;16.95;55.59;96527.84;10435499;28;20197;-29
2022/11/27 20:48:19;;;;;;;8.07;4.82;;;;;;;16.95;55.48;96533.75;10437438;28;20060;-29
2022/11/27 20:53:20;;;;;;;6.83;4.10;;;;;;;16.95;55.68;96530.38;10439034;28;20102;-30
2022/11/27 20:58:22;;;;;;;9.15;5.38;;;;;;;17.02;55.03;96539.69;10435026;28;20305;-30
2022/11/27 21:03:22;;;;;;;6.45;4.63;;;;;;;17.00;55.16;96526.19;10438121;28;20075;-30
2022/11/27 21:08:22;;;;;;;6.00;4.67;;;;;;;17.09;54.67;96526.22;10430678;28;20468;-30
2022/11/27 21:13:23;;;;;;;8.20;4.57;;;;;;;17.19;54.96;96522.84;10433081;28;20377;-30
2022/11/27 21:18:23;;;;;;;5.27;4.40;;;;;;;17.19;54.63;96522.84;10433920;28;20087;-30
2022/11/27 21:23:24;;;;;;;8.52;4.00;;;;;;;17.05;54.12;96510.19;10433335;28;20288;-30
2022/11/27 21:28:25;;;;;;;6.50;4.38;;;;;;;17.08;55.18;96514.41;10438798;28;20032;-31
2022/11/27 21:33:26;;;;;;;6.30;4.20;;;;;;;17.06;55.34;96503.44;10430149;28;20044;-29
2022/11/27 21:38:26;;;;;;;8.23;4.90;;;;;;;17.05;55.71;96489.94;10439509;28;20283;-29
2022/11/27 21:43:27;;;;;;;7.18;3.83;;;;;;;17.04;55.58;96477.28;10435010;28;20447;-30
2022/11/27 21:48:29;;;;;;;6.57;4.90;;;;;;;17.03;56.00;96488.25;10435696;28;20029;-28
2022/11/27 21:53:30;;;;;;;5.50;3.90;;;;;;;17.03;55.66;96466.34;10437528;28;20028;-31
2022/11/27 21:58:33;;;;;;;5.03;3.78;;;;;;;17.01;55.60;96457.91;10440316;28;20025;-30
2022/11/27 22:03:34;;;;;;;7.60;3.83;;;;;;;17.01;55.72;96457.06;10434524;28;20033;-30
2022/11/27 22:08:35;;;;;;;6.80;3.70;;;;;;;17.02;55.69;96464.66;10433156;28;20411;-30
2022/11/27 22:13:37;;;;;;;4.78;3.70;;;;;;;17.00;55.70;96455.38;10432889;28;20348;-30
2022/11/27 22:18:37;;;;;;;7.68;4.10;;;;;;;17.00;55.72;96450.31;10427430;28;20052;-30
2022/11/27 22:23:39;;;;;;;4.93;3.03;;;;;;;17.06;54.91;96435.16;10431452;28;20102;-30
2022/11/27 22:28:40;;;;;;;5.05;3.28;;;;;;;17.11;55.60;96423.34;10436977;28;20506;-30
2022/11/27 22:33:43;;;;;;;4.53;3.08;;;;;;;17.10;55.12;96431.78;10440456;28;20111;-30
2022/11/27 22:38:48;;;;;;;4.55;3.17;;;;;;;17.03;55.05;96423.34;10432040;28;20380;-30
2022/11/27 22:43:49;;;;;;;4.53;2.97;;;;;;;16.98;55.38;96425.03;10436644;28;20036;-30
2022/11/27 22:48:54;;;;;;;4.60;3.08;;;;;;;16.99;55.05;96439.34;10433350;28;20058;-30
2022/11/27 22:53:56;;;;;;;5.82;2.78;;;;;;;16.98;55.47;96431.78;10436244;28;20499;-30
2022/11/27 22:58:59;;;;;;;6.63;3.17;;;;;;;16.97;55.64;96419.94;10433644;28;20021;-30
2022/11/27 23:04:00;;;;;;;4.78;2.95;;;;;;;16.94;56.01;96423.34;10432819;28;20036;-30
2022/11/27 23:09:01;;;;;;;7.05;3.28;;;;;;;16.95;55.64;96427.56;10435496;28;20535;-29
2022/11/27 23:14:02;;;;;;;4.30;2.55;;;;;;;16.97;55.65;96419.94;10431887;28;20033;-30
2022/11/27 23:19:03;;;;;;;4.77;2.80;;;;;;;16.95;55.22;96416.59;10429518;28;20025;-30
2022/11/27 23:24:05;;;;;;;6.85;3.05;;;;;;;16.94;55.42;96414.91;10429401;28;20669;-30
2022/11/27 23:29:06;;;;;;;3.35;2.75;;;;;;;16.93;55.20;96418.28;10437152;28;20025;-30